createdAt,value
2022-08-16T00:05:06.197Z,9.85
2022-08-16T00:10:20.752Z,11.32
2022-08-16T00:15:51.600Z,11.23
2022-08-16T00:21:09.374Z,12.52
2022-08-16T00:26:35.576Z,12.50
2022-08-16T00:32:01.025Z,12.73
2022-08-16T00:37:16.999Z,11.93
2022-08-16T00:42:30.411Z,12.75
2022-08-16T00:47:40.366Z,13.90
2022-08-16T00:52:51.066Z,12.55
2022-08-16T00:58:00.745Z,12.38
2022-08-16T01:03:30.083Z,11.98
2022-08-16T01:08:39.319Z,10.60
2022-08-16T01:13:50.991Z,12.27
2022-08-16T01:19:20.992Z,10.88
2022-08-16T01:24:56.085Z,11.63
2022-08-16T01:30:27.569Z,10.98
2022-08-16T01:35:42.932Z,10.95
2022-08-16T01:40:52.458Z,10.73
2022-08-16T01:46:29.332Z,11.40
2022-08-16T01:51:46.693Z,11.95
2022-08-16T01:56:52.242Z,10.80
2022-08-16T02:02:01.645Z,10.88
2022-08-16T02:07:14.340Z,10.55
2022-08-16T02:12:40.096Z,11.52
2022-08-16T02:18:02.400Z,10.95
2022-08-16T02:23:08.366Z,10.90
2022-08-16T02:28:25.841Z,10.23
2022-08-16T02:33:43.704Z,11.02
2022-08-16T02:38:51.294Z,11.13
2022-08-16T02:44:05.089Z,10.55
2022-08-16T02:49:58.684Z,10.27
2022-08-16T02:54:56.239Z,9.55
2022-08-16T03:00:34.046Z,9.85
2022-08-16T03:05:52.336Z,10.10
2022-08-16T03:11:02.775Z,10.35
2022-08-16T03:16:38.249Z,10.70
2022-08-16T03:21:51.848Z,10.90
2022-08-16T03:27:02.891Z,10.13
2022-08-16T03:32:36.107Z,11.15
2022-08-16T03:38:34.069Z,11.48
2022-08-16T03:43:52.514Z,11.30
2022-08-16T03:49:13.609Z,11.40
2022-08-16T03:54:23.962Z,10.15
2022-08-16T03:59:44.781Z,9.90
2022-08-16T04:04:53.984Z,10.25
2022-08-16T04:10:35.839Z,10.07
2022-08-16T04:15:37.938Z,10.15
2022-08-16T04:20:56.434Z,10.38
2022-08-16T04:26:16.620Z,9.48
2022-08-16T04:31:40.453Z,8.88
2022-08-16T04:37:04.042Z,9.38
2022-08-16T04:42:15.293Z,9.60
2022-08-16T04:47:44.799Z,9.38
2022-08-16T04:53:07.054Z,8.65
2022-08-16T04:58:44.624Z,8.43
2022-08-16T05:04:00.809Z,8.10
2022-08-16T05:09:14.248Z,7.47
2022-08-16T05:14:45.694Z,8.55
2022-08-16T05:19:57.213Z,7.03
2022-08-16T05:25:09.067Z,6.85
2022-08-16T05:30:35.514Z,5.60
2022-08-16T05:36:03.847Z,5.78
2022-08-16T05:41:32.549Z,5.30
2022-08-16T05:46:43.894Z,4.70
2022-08-16T05:51:54.660Z,4.07
2022-08-16T05:57:22.288Z,3.80
2022-08-16T06:02:35.332Z,3.58
2022-08-16T06:07:46.502Z,3.65
2022-08-16T06:13:55.354Z,3.70
2022-08-16T06:19:07.990Z,3.40
2022-08-16T06:24:55.139Z,3.25
2022-08-16T06:29:54.962Z,3.25
2022-08-16T06:35:06.136Z,2.75
2022-08-16T06:40:15.935Z,2.90
2022-08-16T06:45:33.238Z,2.70
2022-08-16T06:50:51.026Z,2.88
2022-08-16T06:56:23.415Z,2.90
2022-08-16T07:01:46.341Z,2.60
2022-08-16T07:07:03.951Z,2.30
2022-08-16T07:12:10.738Z,2.30
2022-08-16T07:17:50.081Z,2.50
2022-08-16T07:23:13.332Z,2.40
2022-08-16T07:28:44.040Z,2.70
2022-08-16T07:33:55.667Z,3.08
2022-08-16T07:39:09.599Z,2.85
2022-08-16T07:44:50.726Z,3.00
2022-08-16T07:50:57.382Z,3.30
2022-08-16T07:56:14.734Z,3.08
2022-08-16T08:01:28.190Z,3.30
2022-08-16T08:06:40.067Z,2.90
2022-08-16T08:11:59.911Z,2.95
2022-08-16T08:17:18.655Z,3.40
2022-08-16T08:22:44.108Z,3.20
2022-08-16T08:27:57.748Z,3.08
2022-08-16T08:33:15.831Z,3.28
2022-08-16T08:38:43.569Z,3.35
2022-08-16T08:43:50.498Z,3.20
2022-08-16T08:49:06.883Z,3.10
2022-08-16T08:54:46.014Z,2.70
2022-08-16T09:00:00.695Z,3.08
2022-08-16T09:05:15.611Z,3.28
2022-08-16T09:10:24.356Z,3.08
2022-08-16T09:15:55.046Z,2.92
2022-08-16T09:21:02.018Z,2.92
2022-08-16T09:26:44.192Z,4.10
2022-08-16T09:31:56.845Z,14.93
2022-08-16T09:37:03.594Z,21.60
2022-08-16T09:42:55.924Z,2.90
2022-08-16T09:48:09.351Z,2.38
2022-08-16T09:53:16.866Z,2.47
2022-08-16T09:58:41.759Z,2.33
2022-08-16T10:04:02.293Z,2.60
2022-08-16T10:09:18.348Z,1.98
2022-08-16T10:14:32.877Z,1.92
2022-08-16T10:19:44.201Z,2.00
2022-08-16T10:24:56.037Z,2.55
2022-08-16T10:30:24.692Z,1.80
2022-08-16T10:35:46.575Z,1.40
2022-08-16T10:41:07.044Z,1.77
2022-08-16T10:46:33.781Z,1.58
2022-08-16T10:52:03.407Z,1.67
2022-08-16T10:57:37.855Z,1.88
2022-08-16T11:02:58.198Z,1.75
2022-08-16T11:08:10.337Z,1.90
2022-08-16T11:19:06.250Z,1.60
2022-08-16T11:24:40.238Z,1.60
2022-08-16T11:29:49.269Z,1.67
2022-08-16T11:35:10.762Z,1.60
2022-08-16T11:40:19.532Z,1.67
2022-08-16T11:45:26.115Z,1.60
2022-08-16T11:50:39.723Z,1.60
2022-08-16T11:55:54.855Z,2.03
2022-08-16T12:01:02.858Z,2.28
2022-08-16T12:06:30.666Z,1.70
2022-08-16T12:11:43.781Z,1.77
2022-08-16T12:17:24.732Z,1.50
2022-08-16T12:22:49.104Z,1.60
2022-08-16T12:27:55.748Z,1.70
2022-08-16T12:33:09.319Z,1.67
2022-08-16T12:38:41.319Z,1.52
2022-08-16T12:44:11.948Z,2.28
2022-08-16T12:49:41.812Z,1.42
2022-08-16T12:54:58.000Z,1.63
2022-08-16T13:00:09.076Z,1.65
2022-08-16T13:05:21.271Z,1.70
2022-08-16T13:10:47.083Z,1.40
2022-08-16T13:16:15.418Z,1.70
2022-08-16T13:21:31.956Z,1.60
2022-08-16T13:26:54.293Z,1.88
2022-08-16T13:32:39.755Z,2.00
2022-08-16T13:37:41.307Z,1.48
2022-08-16T13:42:48.005Z,1.42
2022-08-16T13:48:06.587Z,1.30
2022-08-16T13:53:18.842Z,1.73
2022-08-16T13:58:50.525Z,1.40
2022-08-16T14:04:02.860Z,1.80
2022-08-16T14:09:14.275Z,1.63
2022-08-16T14:14:32.002Z,1.55
2022-08-16T14:25:34.062Z,1.63
2022-08-16T14:30:44.887Z,1.50
2022-08-16T14:36:05.027Z,1.60
2022-08-16T14:41:27.589Z,1.80
2022-08-16T14:46:36.843Z,1.75
2022-08-16T14:52:02.702Z,1.35
2022-08-16T14:57:31.820Z,1.77
2022-08-16T15:02:55.997Z,1.50
2022-08-16T15:13:27.110Z,1.80
2022-08-16T15:18:41.295Z,1.75
2022-08-16T15:24:16.506Z,1.50
2022-08-16T15:29:53.293Z,1.27
2022-08-16T15:35:17.125Z,2.00
2022-08-16T15:40:56.671Z,1.40
2022-08-16T15:46:54.639Z,1.90
2022-08-16T15:52:10.723Z,1.50
2022-08-16T15:57:19.984Z,2.00
2022-08-16T16:02:31.796Z,2.03
2022-08-16T16:07:56.242Z,1.90
2022-08-16T16:13:03.919Z,13.70
2022-08-16T16:18:11.008Z,1.85
2022-08-16T16:23:34.565Z,1.50
2022-08-16T16:29:07.490Z,1.60
2022-08-16T16:34:17.526Z,1.50
2022-08-16T16:39:33.789Z,1.70
2022-08-16T16:44:50.755Z,1.83
2022-08-16T16:49:57.704Z,1.95
2022-08-16T16:55:17.002Z,1.90
2022-08-16T17:00:25.998Z,2.08
2022-08-16T17:05:54.102Z,1.73
2022-08-16T17:11:08.122Z,1.73
2022-08-16T17:16:18.621Z,1.60
2022-08-16T17:21:27.748Z,1.60
2022-08-16T17:26:48.953Z,2.28
2022-08-16T17:31:53.519Z,1.98
2022-08-16T17:37:09.921Z,1.83
2022-08-16T17:42:30.281Z,1.77
2022-08-16T17:47:42.763Z,2.95
2022-08-16T17:52:52.623Z,3.70
2022-08-16T17:58:22.797Z,6.05
2022-08-16T18:04:06.866Z,4.35
2022-08-16T18:09:03.951Z,2.85
2022-08-16T18:25:20.794Z,2.30
2022-08-16T18:30:35.047Z,2.40
2022-08-16T18:35:57.843Z,3.03
2022-08-16T18:41:05.741Z,3.45
2022-08-16T18:46:19.581Z,3.80
2022-08-16T18:51:40.276Z,3.42
2022-08-16T18:56:57.015Z,3.30
2022-08-16T19:02:06.153Z,3.00
2022-08-16T19:07:15.443Z,2.70
2022-08-16T19:12:37.930Z,2.80
2022-08-16T19:18:18.038Z,2.53
2022-08-16T19:23:37.235Z,2.80
2022-08-16T19:28:58.929Z,2.22
2022-08-16T19:34:18.315Z,2.72
2022-08-16T19:39:35.354Z,2.55
2022-08-16T19:44:42.716Z,3.03
2022-08-16T19:49:50.046Z,2.80
2022-08-16T19:55:04.925Z,2.97
2022-08-16T20:00:22.259Z,2.92
2022-08-16T20:06:03.552Z,3.05
2022-08-16T20:11:38.705Z,2.75
2022-08-16T20:16:59.528Z,3.30
2022-08-16T20:22:42.105Z,3.33
2022-08-16T20:27:56.722Z,6.05
2022-08-16T20:33:13.567Z,5.90
2022-08-16T20:38:27.401Z,6.07
2022-08-16T20:43:37.222Z,5.43
2022-08-16T20:48:42.685Z,4.97
2022-08-16T20:54:12.876Z,5.03
2022-08-16T20:59:26.889Z,5.10
2022-08-16T21:04:37.151Z,4.88
2022-08-16T21:09:46.074Z,5.10
2022-08-16T21:15:12.972Z,5.28
2022-08-16T21:20:38.889Z,5.30
2022-08-16T21:25:58.332Z,4.63
2022-08-16T21:31:08.817Z,4.80
2022-08-16T21:36:34.963Z,4.97
2022-08-16T21:41:49.694Z,4.47
2022-08-16T21:47:08.678Z,4.57
2022-08-16T21:52:29.256Z,4.50
2022-08-16T21:58:07.815Z,4.65
2022-08-16T22:03:15.436Z,4.90
2022-08-16T22:08:28.834Z,4.95
2022-08-16T22:13:49.259Z,4.82
2022-08-16T22:19:16.001Z,5.47
2022-08-16T22:24:30.441Z,4.60
2022-08-16T22:29:44.835Z,4.85
2022-08-16T22:34:55.662Z,5.13
2022-08-16T22:40:05.921Z,4.95
2022-08-16T22:45:25.465Z,4.35
2022-08-16T22:50:33.450Z,5.13
2022-08-16T22:55:45.489Z,4.53
2022-08-16T23:01:28.269Z,4.60
2022-08-16T23:06:38.604Z,4.88
2022-08-16T23:12:11.590Z,4.70
2022-08-16T23:17:41.936Z,4.75
2022-08-16T23:23:19.955Z,4.60
2022-08-16T23:28:36.039Z,4.72
2022-08-16T23:33:51.037Z,4.60
2022-08-16T23:39:07.684Z,4.50
2022-08-16T23:44:58.533Z,4.30
2022-08-16T23:55:20.004Z,5.10
